Map

Track Data

SID SEASON NUMBER BASIN SUBBASIN NAME ISO_TIME NATURE LAT LON WMO_WIND WMO_PRES WMO_AGENCY TRACK_TYPE DIST2LAND LANDFALL IFLAG USA_AGENCY USA_ATCF_ID USA_LAT USA_LON USA_RECORD USA_STATUS USA_WIND USA_PRES USA_SSHS USA_R34_NE USA_R34_SE USA_R34_SW USA_R34_NW USA_R50_NE USA_R50_SE USA_R50_SW USA_R50_NW USA_R64_NE USA_R64_SE USA_R64_SW USA_R64_NW USA_POCI USA_ROCI USA_RMW USA_EYE TOKYO_LAT TOKYO_LON TOKYO_GRADE TOKYO_WIND TOKYO_PRES TOKYO_R50_DIR TOKYO_R50_LONG TOKYO_R50_SHORT TOKYO_R30_DIR TOKYO_R30_LONG TOKYO_R30_SHORT TOKYO_LAND CMA_LAT CMA_LON CMA_CAT CMA_WIND CMA_PRES HKO_LAT HKO_LON HKO_CAT HKO_WIND HKO_PRES NEWDELHI_LAT NEWDELHI_LON NEWDELHI_GRADE NEWDELHI_WIND NEWDELHI_PRES NEWDELHI_CI NEWDELHI_DP NEWDELHI_POCI REUNION_LAT REUNION_LON REUNION_TYPE REUNION_WIND REUNION_PRES REUNION_TNUM REUNION_CI REUNION_RMW REUNION_R34_NE REUNION_R34_SE REUNION_R34_SW REUNION_R34_NW REUNION_R50_NE REUNION_R50_SE REUNION_R50_SW REUNION_R50_NW REUNION_R64_NE REUNION_R64_SE REUNION_R64_SW REUNION_R64_NW BOM_LAT BOM_LON BOM_TYPE BOM_WIND BOM_PRES BOM_TNUM BOM_CI BOM_RMW BOM_R34_NE BOM_R34_SE BOM_R34_SW BOM_R34_NW BOM_R50_NE BOM_R50_SE BOM_R50_SW BOM_R50_NW BOM_R64_NE BOM_R64_SE BOM_R64_SW BOM_R64_NW BOM_ROCI BOM_POCI BOM_EYE BOM_POS_METHOD BOM_PRES_METHOD NADI_LAT NADI_LON NADI_CAT NADI_WIND NADI_PRES WELLINGTON_LAT WELLINGTON_LON WELLINGTON_WIND WELLINGTON_PRES DS824_LAT DS824_LON DS824_STAGE DS824_WIND DS824_PRES TD9636_LAT TD9636_LON TD9636_STAGE TD9636_WIND TD9636_PRES TD9635_LAT TD9635_LON TD9635_WIND TD9635_PRES TD9635_ROCI NEUMANN_LAT NEUMANN_LON NEUMANN_CLASS NEUMANN_WIND NEUMANN_PRES MLC_LAT MLC_LON MLC_CLASS MLC_WIND MLC_PRES USA_GUST BOM_GUST BOM_GUST_PER REUNION_GUST REUNION_GUST_PER USA_SEAHGT USA_SEARAD_NE USA_SEARAD_SE USA_SEARAD_SW USA_SEARAD_NW STORM_SPEED STORM_DIR
1931080S16069 1931 13 SI MM NOT_NAMED 1931-03-20 18:00:00 NR -16.0000 69.3000 main 1306 1292 __________O___ -1 -16.0000 69.3000 7 4 218
1931080S16069 1931 13 SI MM NOT_NAMED 1931-03-20 21:00:00 NR -16.1466 69.1809 main 1292 1263 __________P___ -1 -16.1466 69.1809 7 4 218
1931080S16069 1931 13 SI MM NOT_NAMED 1931-03-21 00:00:00 NR -16.3146 69.0394 main 1263 1245 __________P___ -1 -16.3146 69.0394 7 5 220
1931080S16069 1931 13 SI MM NOT_NAMED 1931-03-21 03:00:00 NR -16.5253 68.8533 main 1245 1203 __________P___ -1 -16.5253 68.8533 7 6 221
1931080S16069 1931 13 SI MM NOT_NAMED 1931-03-21 06:00:00 NR -16.8000 68.6000 main 1203 1162 __________O___ -1 -16.8000 68.6000 7 8 222
1931080S16069 1931 13 SI MM NOT_NAMED 1931-03-21 09:00:00 NR -17.1542 68.2667 main 1158 1104 __________P___ -1 -17.1542 68.2667 7 10 221
1931080S16069 1931 13 SI MM NOT_NAMED 1931-03-21 12:00:00 NR -17.5807 67.8805 main 1104 1050 __________P___ -1 -17.5807 67.8805 7 12 219
1931080S16069 1931 13 SI MM NOT_NAMED 1931-03-21 15:00:00 NR -18.0667 67.4790 main 1047 993 __________P___ -1 -18.0667 67.4790 7 13 216
1931080S16069 1931 13 SI MM NOT_NAMED 1931-03-21 18:00:00 NR -18.6000 67.1000 main 993 951 __________O___ -1 -18.6000 67.1000 7 13 213
1931080S16069 1931 13 SI MM NOT_NAMED 1931-03-21 21:00:00 NR -19.1488 66.7482 main 941 900 __________P___ -1 -19.1488 66.7482 7 13 209
1931080S16069 1931 13 SI MM NOT_NAMED 1931-03-22 00:00:00 NR -19.7401 66.4313 main 900 875 __________P___ -1 -19.7401 66.4313 7 13 204
1931080S16069 1931 13 SI MM NOT_NAMED 1931-03-22 03:00:00 NR -20.3614 66.1736 main 875 855 __________P___ -1 -20.3614 66.1736 7 13 198
1931080S16069 1931 13 SI MM NOT_NAMED 1931-03-22 06:00:00 NR -21.0000 66.0000 main 856 849 __________O___ -1 -21.0000 66.0000 7 13 191
1931080S16069 1931 13 SI MM NOT_NAMED 1931-03-22 09:00:00 NR -21.6474 65.9017 main 853 853 __________P___ -1 -21.6474 65.9017 7 13 184
1931080S16069 1931 13 SI MM NOT_NAMED 1931-03-22 12:00:00 NR -22.3069 65.8922 main 868 868 __________P___ -1 -22.3069 65.8922 7 13 177
1931080S16069 1931 13 SI MM NOT_NAMED 1931-03-22 15:00:00 NR -22.9630 65.9617 main 899 899 __________P___ -1 -22.9630 65.9617 7 13 172
1931080S16069 1931 13 SI MM NOT_NAMED 1931-03-22 18:00:00 NR -23.6000 66.1000 main 931 931 __________O___ -1 -23.6000 66.1000 7 13 166
1931080S16069 1931 13 SI MM NOT_NAMED 1931-03-22 21:00:00 NR -24.2060 66.2964 main 975 975 __________P___ -1 -24.2060 66.2964 7 13 161
1931080S16069 1931 13 SI MM NOT_NAMED 1931-03-23 00:00:00 NR -24.7857 66.5379 main 1022 1022 __________P___ -1 -24.7857 66.5379 7 12 158
1931080S16069 1931 13 SI MM NOT_NAMED 1931-03-23 03:00:00 NR -25.3475 66.8104 main 1074 1074 __________P___ -1 -25.3475 66.8104 7 12 155
1931080S16069 1931 13 SI MM NOT_NAMED 1931-03-23 06:00:00 NR -25.9000 67.1000 main 1133 __________O___ -1 -25.9000 67.1000 7 12 155

About IBTrACS Database

This database is a web-friendly format of International Best Track Archive for Climate Stewardship (IBTrACS), a global best track data archive curated by NOAA dating back to 1842.

Updated: 2021-12-01